createdAt,value
2022-11-29T00:02:56.220Z,16.11
2022-11-29T00:08:00.345Z,16.13
2022-11-29T00:13:02.986Z,16.04
2022-11-29T00:18:06.509Z,15.99
2022-11-29T00:23:10.567Z,15.94
2022-11-29T00:28:13.210Z,15.89
2022-11-29T00:33:16.092Z,15.83
2022-11-29T00:38:20.159Z,15.79
2022-11-29T00:43:22.830Z,15.78
2022-11-29T00:48:25.665Z,15.68
2022-11-29T00:53:29.681Z,15.69
2022-11-29T00:58:32.739Z,15.63
2022-11-29T01:03:35.491Z,15.56
2022-11-29T01:08:39.612Z,15.56
2022-11-29T01:13:43.058Z,15.53
2022-11-29T01:18:45.738Z,15.45
2022-11-29T01:23:50.797Z,15.47
2022-11-29T01:28:55.550Z,15.38
2022-11-29T01:34:00.085Z,15.36
2022-11-29T01:39:05.739Z,15.26
2022-11-29T01:44:47.044Z,15.29
2022-11-29T01:49:51.216Z,15.28
2022-11-29T01:54:57.711Z,15.27
2022-11-29T02:00:07.390Z,15.17
2022-11-29T02:05:16.730Z,15.19
2022-11-29T02:10:22.073Z,15.16
2022-11-29T02:15:34.690Z,15.10
2022-11-29T02:20:55.234Z,15.07
2022-11-29T02:26:07.421Z,15.05
2022-11-29T02:31:54.484Z,15.02
2022-11-29T02:37:11.497Z,15.01
2022-11-29T02:42:55.776Z,15.00
2022-11-29T02:48:09.258Z,14.93
2022-11-29T02:53:16.894Z,14.94
2022-11-29T02:58:24.595Z,14.92
2022-11-29T03:03:32.392Z,14.85
2022-11-29T03:08:41.974Z,14.85
2022-11-29T03:13:52.768Z,14.84
2022-11-29T03:19:05.343Z,14.83
2022-11-29T03:24:12.779Z,14.79
2022-11-29T03:29:22.598Z,14.78
2022-11-29T03:34:36.974Z,14.76
2022-11-29T03:39:48.671Z,14.73
2022-11-29T03:44:57.411Z,14.70
2022-11-29T03:50:04.941Z,14.68
2022-11-29T03:55:24.204Z,14.64
2022-11-29T04:00:29.807Z,14.66
2022-11-29T04:05:56.898Z,14.62
2022-11-29T04:11:24.249Z,14.61
2022-11-29T04:16:58.573Z,14.59
2022-11-29T04:22:13.658Z,14.57
2022-11-29T04:27:37.877Z,14.56
2022-11-29T04:33:28.737Z,14.56
2022-11-29T04:38:59.859Z,14.53
2022-11-29T04:44:16.556Z,14.49
2022-11-29T04:49:30.035Z,14.50
2022-11-29T04:54:37.702Z,14.48
2022-11-29T04:59:45.078Z,14.48
2022-11-29T05:04:52.491Z,14.47
2022-11-29T05:09:59.889Z,14.42
2022-11-29T05:15:36.989Z,14.40
2022-11-29T05:20:44.306Z,14.40
2022-11-29T05:25:51.801Z,14.37
2022-11-29T05:31:17.435Z,14.39
2022-11-29T05:36:25.920Z,14.36
2022-11-29T05:41:41.045Z,14.33
2022-11-29T05:46:50.980Z,14.33
2022-11-29T05:51:59.136Z,14.28
2022-11-29T05:57:11.770Z,14.29
2022-11-29T06:02:29.058Z,14.27
2022-11-29T06:07:38.648Z,14.24
2022-11-29T06:12:43.690Z,14.23
2022-11-29T06:17:58.053Z,14.26
2022-11-29T06:23:18.482Z,14.23
2022-11-29T06:28:33.250Z,14.21
2022-11-29T06:33:44.418Z,14.20
2022-11-29T06:38:47.464Z,14.16
2022-11-29T06:43:51.041Z,14.18
2022-11-29T06:49:02.361Z,14.15
2022-11-29T06:54:15.671Z,14.18
2022-11-29T06:59:31.704Z,14.21
2022-11-29T07:04:57.532Z,14.18
2022-11-29T07:10:00.515Z,14.17
2022-11-29T07:15:03.810Z,14.14
2022-11-29T07:20:13.775Z,14.15
2022-11-29T07:25:26.347Z,14.14
2022-11-29T07:30:35.648Z,14.12
2022-11-29T07:35:46.105Z,14.13
2022-11-29T07:40:53.235Z,14.11
2022-11-29T07:45:56.974Z,14.05
2022-11-29T07:51:01.861Z,14.10
2022-11-29T07:56:04.616Z,14.05
2022-11-29T08:01:07.639Z,14.07
2022-11-29T08:06:11.773Z,14.05
2022-11-29T08:11:15.853Z,14.07
2022-11-29T08:16:18.943Z,14.06
2022-11-29T08:21:23.013Z,14.09
2022-11-29T08:26:31.264Z,14.08
2022-11-29T08:31:34.410Z,14.08
2022-11-29T08:36:38.861Z,14.11
2022-11-29T08:41:41.506Z,14.07
2022-11-29T08:47:01.906Z,14.06
2022-11-29T08:52:24.073Z,14.04
2022-11-29T08:57:42.068Z,14.06
2022-11-29T09:02:44.750Z,14.01
2022-11-29T09:07:48.887Z,14.06
2022-11-29T09:12:51.618Z,14.07
2022-11-29T09:17:54.271Z,14.06
2022-11-29T09:22:58.883Z,14.08
2022-11-29T09:28:02.976Z,14.13
2022-11-29T09:33:05.658Z,14.14
2022-11-29T09:38:11.822Z,14.11
2022-11-29T09:43:21.040Z,14.14
2022-11-29T09:48:42.689Z,14.16
2022-11-29T09:53:59.351Z,14.17
2022-11-29T09:59:04.743Z,14.15
2022-11-29T10:04:11.963Z,14.17
2022-11-29T10:09:18.475Z,14.11
2022-11-29T10:14:27.735Z,14.13
2022-11-29T10:19:33.605Z,14.13
2022-11-29T10:24:39.262Z,14.12
2022-11-29T10:29:41.950Z,14.12
2022-11-29T10:34:44.889Z,14.06
2022-11-29T10:39:51.296Z,14.06
2022-11-29T10:44:53.962Z,14.06
2022-11-29T10:49:56.803Z,14.06
2022-11-29T10:55:01.086Z,14.07
2022-11-29T11:00:07.782Z,14.06
2022-11-29T11:05:18.371Z,14.08
2022-11-29T11:10:26.362Z,14.08
2022-11-29T11:15:30.740Z,14.11
2022-11-29T11:20:34.677Z,14.06
2022-11-29T11:25:39.693Z,14.07
2022-11-29T11:30:50.774Z,14.04
2022-11-29T11:36:08.024Z,14.06
2022-11-29T11:41:21.861Z,14.04
2022-11-29T11:46:24.930Z,14.02
2022-11-29T11:51:28.873Z,14.04
2022-11-29T11:56:36.601Z,14.00
2022-11-29T12:01:40.097Z,14.02
2022-11-29T12:06:50.957Z,13.99
2022-11-29T12:12:01.419Z,14.06
2022-11-29T12:17:19.631Z,14.33
2022-11-29T12:22:25.747Z,14.64
2022-11-29T12:27:30.572Z,14.95
2022-11-29T12:32:46.786Z,15.19
2022-11-29T12:37:52.993Z,15.43
2022-11-29T12:43:02.240Z,15.74
2022-11-29T12:48:14.808Z,15.96
2022-11-29T12:53:27.802Z,16.14
2022-11-29T12:58:41.354Z,16.34
2022-11-29T13:03:53.706Z,16.49
2022-11-29T13:09:04.957Z,16.58
2022-11-29T13:14:41.472Z,16.63
2022-11-29T13:19:39.457Z,16.73
2022-11-29T13:24:45.461Z,16.79
2022-11-29T13:29:50.169Z,16.86
2022-11-29T13:34:53.423Z,16.85
2022-11-29T13:40:00.490Z,16.83
2022-11-29T13:45:10.987Z,16.93
2022-11-29T13:50:37.255Z,17.07
2022-11-29T13:55:45.369Z,17.15
2022-11-29T14:00:52.003Z,17.16
2022-11-29T14:05:55.794Z,17.22
2022-11-29T14:11:00.377Z,17.25
2022-11-29T14:16:05.615Z,17.22
2022-11-29T14:21:08.566Z,17.18
2022-11-29T14:26:29.756Z,17.19
2022-11-29T14:31:51.622Z,17.33
2022-11-29T14:36:57.807Z,17.43
2022-11-29T14:42:07.775Z,17.46
2022-11-29T14:47:21.359Z,17.54
2022-11-29T14:52:29.095Z,17.54
2022-11-29T14:57:52.676Z,17.53
2022-11-29T15:02:59.967Z,17.47
2022-11-29T15:08:09.260Z,17.46
2022-11-29T15:13:14.159Z,17.37
2022-11-29T15:18:27.858Z,17.33
2022-11-29T15:23:40.865Z,17.26
2022-11-29T15:28:43.541Z,17.27
2022-11-29T15:33:49.073Z,17.47
2022-11-29T15:38:53.887Z,17.55
2022-11-29T15:43:59.318Z,17.56
2022-11-29T15:49:18.942Z,17.62
2022-11-29T15:54:27.426Z,17.63
2022-11-29T15:59:34.238Z,17.62
2022-11-29T16:04:45.080Z,17.60
2022-11-29T16:09:52.619Z,17.57
2022-11-29T16:14:57.219Z,17.49
2022-11-29T16:20:23.416Z,17.44
2022-11-29T16:25:27.032Z,17.40
2022-11-29T16:30:31.250Z,17.37
2022-11-29T16:35:36.257Z,17.41
2022-11-29T16:40:38.932Z,17.41
2022-11-29T16:45:42.145Z,17.41
2022-11-29T16:50:46.375Z,17.41
2022-11-29T16:55:49.025Z,17.44
2022-11-29T17:00:51.678Z,17.46
2022-11-29T17:05:56.189Z,17.48
2022-11-29T17:10:58.828Z,17.47
2022-11-29T17:16:01.479Z,17.47
2022-11-29T17:21:05.757Z,17.40
2022-11-29T17:26:08.564Z,17.39
2022-11-29T17:31:11.927Z,17.44
2022-11-29T17:36:17.758Z,17.54
2022-11-29T17:41:22.600Z,17.53
2022-11-29T17:46:26.950Z,17.56
2022-11-29T17:56:53.716Z,17.48
2022-11-29T18:01:56.633Z,17.49
2022-11-29T18:07:01.464Z,17.38
2022-11-29T18:12:04.391Z,17.31
2022-11-29T18:17:07.035Z,17.44
2022-11-29T18:22:11.123Z,17.50
2022-11-29T18:27:13.765Z,17.51
2022-11-29T18:32:16.468Z,17.60
2022-11-29T18:37:38.967Z,17.59
2022-11-29T18:42:43.087Z,17.50
2022-11-29T18:47:46.017Z,17.45
2022-11-29T18:52:51.460Z,17.39
2022-11-29T18:57:54.192Z,17.34
2022-11-29T19:02:57.380Z,17.35
2022-11-29T19:08:01.541Z,17.30
2022-11-29T19:13:04.436Z,17.28
2022-11-29T19:18:07.138Z,17.45
2022-11-29T19:23:11.159Z,17.51
2022-11-29T19:28:14.346Z,17.56
2022-11-29T19:33:17.229Z,17.56
2022-11-29T19:38:21.280Z,17.55
2022-11-29T19:43:24.124Z,17.54
2022-11-29T19:48:26.718Z,17.50
2022-11-29T19:53:30.940Z,17.45
2022-11-29T19:58:33.632Z,17.46
2022-11-29T20:03:36.559Z,17.55
2022-11-29T20:08:41.608Z,17.61
2022-11-29T20:13:45.728Z,17.68
2022-11-29T20:18:51.077Z,17.64
2022-11-29T20:23:57.712Z,17.66
2022-11-29T20:29:01.727Z,17.60
2022-11-29T20:34:04.949Z,17.62
2022-11-29T20:39:17.878Z,17.53
2022-11-29T20:44:24.869Z,17.52
2022-11-29T20:49:28.011Z,17.68
2022-11-29T20:54:32.027Z,17.74
2022-11-29T20:59:34.757Z,17.78
2022-11-29T21:04:37.449Z,17.79
2022-11-29T21:09:41.539Z,17.80
2022-11-29T21:14:44.974Z,17.75
2022-11-29T21:19:48.424Z,17.69
2022-11-29T21:24:59.078Z,17.64
2022-11-29T21:30:05.352Z,17.66
2022-11-29T21:35:08.858Z,17.74
2022-11-29T21:40:14.798Z,17.66
2022-11-29T21:45:17.809Z,17.66
2022-11-29T21:50:20.466Z,17.63
2022-11-29T21:55:31.584Z,17.60
2022-11-29T22:00:37.572Z,17.66
2022-11-29T22:05:40.447Z,17.77
2022-11-29T22:10:44.464Z,17.81
2022-11-29T22:15:47.250Z,17.82
2022-11-29T22:20:49.889Z,17.80
2022-11-29T22:25:53.891Z,17.77
2022-11-29T22:31:02.588Z,17.75
2022-11-29T22:36:06.176Z,17.70
2022-11-29T22:41:11.408Z,17.67
2022-11-29T22:46:16.359Z,17.74
2022-11-29T22:51:23.477Z,17.72
2022-11-29T22:56:29.623Z,17.70
2022-11-29T23:01:35.192Z,17.60
2022-11-29T23:06:39.669Z,17.66
2022-11-29T23:11:44.359Z,17.57
2022-11-29T23:16:47.027Z,17.52
2022-11-29T23:21:51.941Z,17.50
2022-11-29T23:26:55.963Z,17.46
2022-11-29T23:31:58.644Z,17.33
2022-11-29T23:37:01.319Z,17.24
2022-11-29T23:42:05.706Z,17.18
2022-11-29T23:47:08.388Z,17.06
2022-11-29T23:52:11.003Z,16.98
2022-11-29T23:57:14.993Z,16.82
